KBKT/BKT METAR and TAF weather

Enter ICAO airport designator
Station Type Date Time Source
KBKT METAR 2018/04/20 08:35 UTC NOAA

KBKT 200835Z AUTO 27005KT 10SM CLR 02/M03 A3023 RMK AO1 T00221030


Station Type Date Time Source
KBKT Decoded METAR 2018/04/20 08:35 UTC NOAA

Ft. Pickett / Blackstone, VA, United States (KBKT) 37-05N 077-57W
Apr 20, 2018 - 04:35 AM EDT / 2018.04.20 0835 UTC
Wind: from the W (270 degrees) at 6 MPH (5 KT):0
Visibility: 10 mile(s):0
Sky conditions: clear
Temperature: 36.0 F (2.2 C)
Dew Point: 26.6 F (-3.0 C)
Relative Humidity: 68%
Pressure (altimeter): 30.23 in. Hg (1023 hPa)
ob: KBKT 200835Z AUTO 27005KT 10SM CLR 02/M03 A3023 RMK AO1 T00221030
cycle: 8

Station Type Date Time Source
KBKT TAF UTC NOAA

Error!


Example: see airport list